Time;durP1;ratioP1;P1;durP2;ratioP2;P2;SDS_P1;SDS_P2;PMS_P1;PMS_P2;Temp;Humidity;BMP_temperature;BMP_pressure;BME280_temperature;BME280_humidity;BME280_pressure;Samples;Min_cycle;Max_cycle;Signal;HPM_P1;HPM_P2
2022/05/06 00:00:16;;;;;;;3.20;2.27;;;;;;;10.90;100.00;96686.69;4993753;28;20242;-82
2022/05/06 00:02:43;;;;;;;3.10;2.33;;;;;;;10.85;100.00;96693.84;5005727;28;20199;-81
2022/05/06 00:05:11;;;;;;;2.70;2.43;;;;;;;10.86;100.00;96692.78;5014890;28;20210;-80
2022/05/06 00:07:40;;;;;;;2.50;2.20;;;;;;;10.86;100.00;96696.31;4998375;28;20216;-82
2022/05/06 00:10:09;;;;;;;2.90;2.43;;;;;;;10.90;100.00;96683.16;5017611;28;20285;-82
2022/05/06 00:12:37;;;;;;;2.40;2.20;;;;;;;10.98;100.00;96689.09;5017381;28;20209;-83
2022/05/06 00:15:06;;;;;;;3.10;2.50;;;;;;;11.02;100.00;96686.78;5007214;28;20281;-82
2022/05/06 00:17:34;;;;;;;2.73;2.37;;;;;;;11.01;100.00;96687.84;4994433;28;20214;-82
2022/05/06 00:20:01;;;;;;;2.63;2.27;;;;;;;11.08;100.00;96688.59;5000094;28;20321;-82
2022/05/06 00:22:28;;;;;;;2.27;2.07;;;;;;;11.08;100.00;96683.19;5014594;28;20232;-81
2022/05/06 00:24:56;;;;;;;4.53;2.50;;;;;;;11.05;100.00;96672.84;4997674;28;20282;-82
2022/05/06 00:27:23;;;;;;;2.57;2.37;;;;;;;11.04;100.00;96676.59;4999641;28;20342;-82
2022/05/06 00:29:50;;;;;;;2.70;2.50;;;;;;;11.03;100.00;96672.25;5019534;28;20218;-81
2022/05/06 00:32:17;;;;;;;2.33;2.13;;;;;;;11.06;100.00;96669.06;5009008;28;20243;-81
2022/05/06 00:34:44;;;;;;;3.67;2.40;;;;;;;11.07;100.00;96673.41;5015698;28;20260;-81
2022/05/06 00:37:11;;;;;;;2.40;2.20;;;;;;;11.08;100.00;96672.38;5016784;28;20249;-81
2022/05/06 00:39:39;;;;;;;2.63;2.10;;;;;;;11.02;100.00;96684.09;4996344;28;20215;-81
2022/05/06 00:42:08;;;;;;;2.50;2.30;;;;;;;10.94;100.00;96679.00;5014217;28;20208;-82
2022/05/06 00:44:35;;;;;;;2.43;2.23;;;;;;;10.97;100.00;96665.84;5000038;28;20295;-83
2022/05/06 00:47:04;;;;;;;4.60;2.50;;;;;;;10.98;100.00;96664.78;5000303;28;20209;-82
2022/05/06 00:49:32;;;;;;;2.50;2.23;;;;;;;11.01;100.00;96666.22;5018661;28;20550;-82
2022/05/06 00:51:59;;;;;;;2.43;2.20;;;;;;;11.00;100.00;96662.69;5005089;28;20215;-84
2022/05/06 00:54:26;;;;;;;2.50;2.30;;;;;;;11.06;100.00;96662.88;5004918;28;20285;-82
2022/05/06 00:56:54;;;;;;;2.63;2.43;;;;;;;11.07;100.00;96654.50;4998339;28;20206;-82
2022/05/06 00:59:23;;;;;;;2.50;2.30;;;;;;;11.04;100.00;96656.84;4993416;28;20219;-83
2022/05/06 01:01:50;;;;;;;2.93;2.57;;;;;;;10.91;100.00;96649.72;5015081;28;20310;-82
2022/05/06 01:04:18;;;;;;;2.80;2.27;;;;;;;10.87;100.00;96659.31;5021515;28;20329;-85
2022/05/06 01:06:46;;;;;;;2.73;2.50;;;;;;;10.86;100.00;96652.28;5018557;28;20194;-82
2022/05/06 01:09:16;;;;;;;2.80;2.60;;;;;;;10.80;100.00;96642.38;5004889;28;20202;-82
2022/05/06 01:11:43;;;;;;;2.57;2.20;;;;;;;10.78;100.00;96639.06;5004368;28;20222;-82
2022/05/06 01:14:11;;;;;;;3.27;2.70;;;;;;;10.76;100.00;96647.38;5017714;28;20199;-82
2022/05/06 01:16:39;;;;;;;3.27;2.73;;;;;;;10.76;100.00;96654.66;5005437;28;20210;-81
2022/05/06 01:19:10;;;;;;;2.70;2.50;;;;;;;10.68;100.00;96644.16;5017362;28;20207;-82
2022/05/06 01:21:44;;;;;;;3.50;3.10;;;;;;;10.68;100.00;96649.53;5009234;28;20242;-82
2022/05/06 01:24:12;;;;;;;3.47;2.80;;;;;;;10.68;100.00;96644.16;4997092;28;20219;-83
2022/05/06 01:26:57;;;;;;;2.80;2.60;;;;;;;10.70;100.00;96639.34;5016653;28;20199;-82
2022/05/06 01:29:25;;;;;;;2.83;2.60;;;;;;;10.78;100.00;96649.88;5008982;28;20304;-82
2022/05/06 01:31:53;;;;;;;3.70;2.90;;;;;;;10.78;100.00;96650.69;5015523;28;20199;-82
2022/05/06 01:34:23;;;;;;;3.20;2.73;;;;;;;10.74;100.00;96645.94;4998027;28;20215;-82
2022/05/06 01:36:53;;;;;;;3.13;2.60;;;;;;;10.74;100.00;96652.19;5016448;28;20226;-81
2022/05/06 01:39:27;;;;;;;5.33;3.30;;;;;;;10.75;100.00;96647.59;4992927;28;20238;-81
2022/05/06 01:41:56;;;;;;;3.20;2.87;;;;;;;10.72;100.00;96645.38;5003789;28;20231;-82
2022/05/06 01:44:36;;;;;;;3.30;2.97;;;;;;;10.78;100.00;96649.88;5019915;28;20201;-81
2022/05/06 01:47:05;;;;;;;3.73;2.93;;;;;;;10.73;100.00;96647.81;5001672;28;20219;-83
2022/05/06 01:49:33;;;;;;;3.50;3.20;;;;;;;10.81;100.00;96641.28;4998964;28;20214;-82
2022/05/06 01:52:03;;;;;;;3.50;3.00;;;;;;;10.79;100.00;96651.53;4990195;28;20219;-81
2022/05/06 01:54:32;;;;;;;3.23;2.93;;;;;;;10.84;100.00;96646.25;4999664;28;20203;-81
2022/05/06 01:57:01;;;;;;;3.40;3.10;;;;;;;10.83;100.00;96642.72;5000001;28;20219;-82
2022/05/06 01:59:28;;;;;;;4.40;3.23;;;;;;;10.77;100.00;96642.81;5005173;28;20206;-82
2022/05/06 02:02:08;;;;;;;5.47;2.90;;;;;;;10.80;100.00;96639.66;5002631;28;20215;-81
2022/05/06 02:07:20;;;;;;;3.07;2.87;;;;;;;10.76;100.00;96643.84;5005395;28;20215;-82
2022/05/06 02:09:50;;;;;;;5.17;3.00;;;;;;;10.70;100.00;96645.59;5003288;28;20195;-82
2022/05/06 02:12:23;;;;;;;3.30;2.73;;;;;;;10.72;100.00;96651.56;5010983;28;20206;-83
2022/05/06 02:15:07;;;;;;;2.93;2.67;;;;;;;10.77;100.00;96648.22;5021976;28;20291;-82
2022/05/06 02:18:00;;;;;;;4.23;2.90;;;;;;;10.81;100.00;96650.22;4991294;28;20218;-83
2022/05/06 02:20:49;;;;;;;3.57;3.27;;;;;;;10.79;100.00;96646.13;5014050;28;20249;-81
2022/05/06 02:23:33;;;;;;;3.63;3.17;;;;;;;10.77;100.00;96632.84;5003861;28;20258;-83
2022/05/06 02:26:15;;;;;;;3.20;2.90;;;;;;;10.81;100.00;96641.28;5006762;28;20206;-82
2022/05/06 02:28:50;;;;;;;3.10;2.80;;;;;;;10.76;100.00;96635.75;5011685;28;20284;-82
2022/05/06 02:34:02;;;;;;;3.10;2.80;;;;;;;10.70;100.00;96636.66;4967744;28;20394;-83
2022/05/06 02:36:34;;;;;;;6.10;3.40;;;;;;;10.70;100.00;96642.88;5003168;28;20229;-85
2022/05/06 02:39:02;;;;;;;3.23;2.90;;;;;;;10.64;100.00;96638.34;5004700;28;20203;-84
2022/05/06 02:41:33;;;;;;;5.10;3.33;;;;;;;10.63;100.00;96627.81;5009922;28;20310;-83
2022/05/06 02:44:02;;;;;;;3.20;2.90;;;;;;;10.58;100.00;96623.06;4998721;28;20199;-82
2022/05/06 02:46:35;;;;;;;3.43;2.87;;;;;;;10.60;100.00;96629.91;5016939;28;20267;-82
2022/05/06 02:49:02;;;;;;;3.50;3.20;;;;;;;10.53;100.00;96618.34;5005655;28;20309;-83
2022/05/06 02:51:30;;;;;;;3.30;3.00;;;;;;;10.59;100.00;96630.94;5004941;28;20318;-81
2022/05/06 02:53:57;;;;;;;3.50;2.90;;;;;;;10.63;100.00;96630.50;5002196;28;20511;-82
2022/05/06 02:56:30;;;;;;;3.10;2.67;;;;;;;10.60;100.00;96632.59;4999463;28;20199;-83
2022/05/06 02:59:02;;;;;;;3.70;2.80;;;;;;;10.54;100.00;96622.69;5012162;28;20211;-82
2022/05/06 03:01:32;;;;;;;3.57;3.27;;;;;;;10.52;100.00;96619.38;4994267;28;20221;-82
2022/05/06 03:04:04;;;;;;;3.20;2.90;;;;;;;10.60;100.00;96624.50;5000247;28;20310;-83
2022/05/06 03:06:33;;;;;;;3.37;3.07;;;;;;;10.61;100.00;96620.75;5003129;28;20207;-82
2022/05/06 03:09:00;;;;;;;3.30;3.00;;;;;;;10.63;100.00;96624.03;4996519;28;20217;-85
2022/05/06 03:11:33;;;;;;;3.67;2.77;;;;;;;10.60;100.00;96619.09;4995456;28;20210;-82
2022/05/06 03:14:07;;;;;;;5.03;3.23;;;;;;;10.63;100.00;96615.91;5019344;28;20207;-82
2022/05/06 03:16:43;;;;;;;3.33;2.90;;;;;;;10.68;100.00;96611.75;5018660;28;20199;-81
2022/05/06 03:19:11;;;;;;;4.20;3.07;;;;;;;10.71;100.00;96616.72;5001217;28;20209;-82
2022/05/06 03:21:38;;;;;;;3.90;3.40;;;;;;;10.61;100.00;96617.22;5004319;28;20277;-83
2022/05/06 03:24:06;;;;;;;3.53;3.20;;;;;;;10.53;100.00;96615.63;5005338;28;20215;-82
2022/05/06 03:26:33;;;;;;;4.20;3.50;;;;;;;10.61;100.00;96625.31;4999301;28;20207;-82
2022/05/06 03:29:01;;;;;;;4.83;3.77;;;;;;;10.63;100.00;96613.22;4996604;28;20214;-83
2022/05/06 03:31:30;;;;;;;4.73;4.23;;;;;;;10.64;100.00;96605.94;5001680;28;20203;-82
2022/05/06 03:34:06;;;;;;;3.50;3.20;;;;;;;10.59;100.00;96597.72;5016046;28;20210;-82
2022/05/06 03:36:41;;;;;;;3.80;3.13;;;;;;;10.58;100.00;96612.25;4999197;28;20203;-82
2022/05/06 03:39:11;;;;;;;4.40;3.33;;;;;;;10.54;100.00;96598.41;4995122;28;20215;-82
2022/05/06 03:41:45;;;;;;;4.10;3.70;;;;;;;10.64;100.00;96614.06;5015822;28;20230;-81
2022/05/06 03:44:12;;;;;;;7.10;3.87;;;;;;;10.56;100.00;96608.94;5003175;28;20233;-81
2022/05/06 03:46:45;;;;;;;4.23;3.80;;;;;;;10.55;100.00;96607.28;5001688;28;20217;-82
2022/05/06 03:49:13;;;;;;;4.90;3.63;;;;;;;10.59;100.00;96614.75;5002966;28;20217;-82
2022/05/06 03:51:44;;;;;;;4.97;3.30;;;;;;;10.59;100.00;96614.75;5002181;28;20207;-84
2022/05/06 03:54:16;;;;;;;3.50;3.20;;;;;;;10.55;100.00;96608.13;4997792;28;20242;-82
2022/05/06 03:56:44;;;;;;;5.27;3.10;;;;;;;10.63;100.00;96615.91;4996844;28;20202;-83
2022/05/06 03:59:11;;;;;;;3.43;3.13;;;;;;;10.66;100.00;96616.53;4999789;28;20337;-82
2022/05/06 04:01:42;;;;;;;3.67;3.37;;;;;;;10.58;100.00;96621.19;5011034;28;20223;-82
2022/05/06 04:04:17;;;;;;;4.93;3.70;;;;;;;10.51;100.00;96611.50;5004434;28;20265;-83
2022/05/06 04:06:47;;;;;;;4.30;3.67;;;;;;;10.55;100.00;96618.09;5017224;28;20207;-85
2022/05/06 04:09:14;;;;;;;4.63;4.00;;;;;;;10.57;100.00;96621.41;5002187;28;20195;-85
2022/05/06 04:11:42;;;;;;;5.17;4.17;;;;;;;10.61;100.00;96623.44;5002345;28;20207;-82
2022/05/06 04:14:11;;;;;;;4.53;4.10;;;;;;;10.63;100.00;96622.41;5000384;28;20297;-82
2022/05/06 04:16:43;;;;;;;3.67;3.27;;;;;;;10.61;100.00;96618.03;5005042;28;20195;-82
2022/05/06 04:19:22;;;;;;;5.60;4.27;;;;;;;10.65;100.00;96622.97;5021429;28;20253;-81
2022/05/06 04:24:44;;;;;;;5.57;4.63;;;;;;;10.65;100.00;96628.38;4996077;28;20222;-83
2022/05/06 04:27:11;;;;;;;5.43;4.30;;;;;;;10.70;100.00;96639.34;4998439;28;20200;-83
2022/05/06 04:29:38;;;;;;;4.27;3.73;;;;;;;10.63;100.00;96635.91;5001524;28;20230;-82
2022/05/06 04:32:07;;;;;;;4.83;4.33;;;;;;;10.58;100.00;96629.28;5012261;28;20314;-82
2022/05/06 04:34:35;;;;;;;6.00;4.10;;;;;;;10.61;100.00;96628.84;5015354;28;20210;-83
2022/05/06 04:37:05;;;;;;;4.77;3.93;;;;;;;10.61;100.00;96623.44;4992134;28;20322;-83
2022/05/06 04:39:33;;;;;;;3.90;3.50;;;;;;;10.63;100.00;96627.81;5000518;28;20206;-82
2022/05/06 04:42:02;;;;;;;4.37;3.57;;;;;;;10.62;100.00;96624.28;5001025;28;20218;-82
2022/05/06 04:44:34;;;;;;;5.10;4.20;;;;;;;10.61;100.00;96628.84;5008548;28;20210;-84
2022/05/06 04:47:01;;;;;;;4.47;3.60;;;;;;;10.63;100.00;96640.22;5004708;28;20207;-83
2022/05/06 04:49:30;;;;;;;3.93;3.33;;;;;;;10.61;100.00;96634.25;5004936;28;20199;-84
2022/05/06 04:51:59;;;;;;;3.80;3.40;;;;;;;10.58;100.00;96634.69;5003499;28;20199;-82
2022/05/06 04:54:26;;;;;;;4.87;3.90;;;;;;;10.61;100.00;96636.94;5015078;28;20198;-82
2022/05/06 04:56:54;;;;;;;4.17;3.67;;;;;;;10.68;100.00;96644.16;5011975;28;20313;-82
2022/05/06 04:59:30;;;;;;;3.77;3.47;;;;;;;10.64;100.00;96646.44;5003981;28;20506;-81
2022/05/06 05:01:57;;;;;;;4.17;3.70;;;;;;;10.70;100.00;96647.47;5017519;28;20227;-84
2022/05/06 05:04:27;;;;;;;4.80;3.40;;;;;;;10.73;100.00;96647.81;4996117;28;20250;-82
2022/05/06 05:07:00;;;;;;;6.43;4.13;;;;;;;10.72;100.00;96634.56;4999836;28;20206;-83
2022/05/06 05:09:27;;;;;;;4.10;3.57;;;;;;;10.77;100.00;96637.41;5002035;28;20211;-82
2022/05/06 05:11:55;;;;;;;5.20;3.53;;;;;;;10.85;100.00;96639.81;4999554;28;20214;-82
2022/05/06 05:14:35;;;;;;;3.93;3.53;;;;;;;10.77;100.00;96648.22;4997243;28;20209;-82
2022/05/06 05:17:03;;;;;;;3.30;3.00;;;;;;;10.78;100.00;96639.88;5002292;28;20210;-83
2022/05/06 05:19:30;;;;;;;4.17;3.40;;;;;;;10.84;100.00;96638.97;4995379;28;20241;-83
2022/05/06 05:22:01;;;;;;;5.33;3.40;;;;;;;10.82;100.00;96641.06;5015382;28;20270;-83
2022/05/06 05:24:28;;;;;;;5.87;4.30;;;;;;;10.80;100.00;96642.38;5004540;28;20205;-83
2022/05/06 05:26:57;;;;;;;6.10;5.13;;;;;;;10.81;100.00;96644.81;5012458;28;20207;-82
2022/05/06 05:29:25;;;;;;;11.17;6.50;;;;;;;10.83;100.00;96648.13;5017880;28;20211;-84
2022/05/06 05:31:52;;;;;;;7.07;6.03;;;;;;;10.88;100.00;96645.59;5002673;28;20286;-81
2022/05/06 05:34:20;;;;;;;5.10;4.40;;;;;;;10.92;100.00;96635.97;5002145;28;20207;-82
2022/05/06 05:36:49;;;;;;;5.60;4.73;;;;;;;10.86;100.00;96630.66;4992576;28;20196;-82
2022/05/06 05:39:18;;;;;;;8.17;5.60;;;;;;;10.87;100.00;96638.53;4992597;28;20195;-81
2022/05/06 05:41:46;;;;;;;7.97;5.70;;;;;;;10.86;100.00;96641.47;4997240;28;20215;-82
2022/05/06 05:49:47;;;;;;;8.40;5.10;;;;;;;10.79;100.00;96646.94;5016499;28;20210;-82
2022/05/06 05:52:14;;;;;;;5.93;5.30;;;;;;;10.79;100.00;96628.03;5000745;28;20265;-82
2022/05/06 05:54:44;;;;;;;6.73;5.83;;;;;;;10.81;100.00;96633.19;5019192;28;20207;-82
2022/05/06 05:57:11;;;;;;;13.67;6.63;;;;;;;10.94;100.00;96646.56;5003023;28;20215;-82
2022/05/06 05:59:41;;;;;;;7.53;5.90;;;;;;;10.94;100.00;96643.88;5000061;28;20204;-84
2022/05/06 06:02:10;;;;;;;8.60;6.43;;;;;;;11.00;100.00;96656.47;5000348;28;20273;-84
2022/05/06 06:04:39;;;;;;;6.83;5.93;;;;;;;10.96;100.00;96650.69;5003707;28;20211;-82
2022/05/06 06:07:07;;;;;;;6.57;5.30;;;;;;;10.96;100.00;96652.56;5016829;28;20210;-81
2022/05/06 06:09:34;;;;;;;6.60;5.70;;;;;;;11.00;100.00;96651.06;5007461;28;20207;-82
2022/05/06 06:12:09;;;;;;;6.97;5.40;;;;;;;11.01;100.00;96650.00;5004560;28;20210;-83
2022/05/06 06:14:38;;;;;;;6.43;5.20;;;;;;;11.03;100.00;96647.91;5008394;28;20273;-81
2022/05/06 06:17:05;;;;;;;7.30;5.30;;;;;;;11.05;100.00;96650.41;5007749;28;20212;-82
2022/05/06 06:19:33;;;;;;;6.10;5.30;;;;;;;11.04;100.00;96659.56;5001436;28;20306;-83
2022/05/06 06:22:01;;;;;;;6.70;5.30;;;;;;;11.02;100.00;96651.66;4995513;28;20243;-82
2022/05/06 06:24:40;;;;;;;8.93;5.37;;;;;;;10.92;100.00;96645.97;5009523;28;20210;-81
2022/05/06 06:27:08;;;;;;;7.83;6.13;;;;;;;10.94;100.00;96641.16;4996084;28;20239;-85
2022/05/06 06:29:36;;;;;;;6.97;6.20;;;;;;;10.96;100.00;96642.59;5011455;28;20199;-86
2022/05/06 06:32:04;;;;;;;7.23;5.53;;;;;;;11.08;100.00;96645.34;5000367;28;20267;-86
2022/05/06 06:34:31;;;;;;;6.87;5.07;;;;;;;11.11;100.00;96653.03;5020488;28;20218;-84
2022/05/06 06:36:59;;;;;;;6.27;4.90;;;;;;;11.11;100.00;96655.72;5019142;28;20209;-85
2022/05/06 06:39:26;;;;;;;5.10;4.17;;;;;;;11.09;100.00;96649.72;5006482;28;20277;-85
2022/05/06 06:41:55;;;;;;;5.97;4.27;;;;;;;11.03;100.00;96637.09;5007151;28;20223;-83
2022/05/06 06:44:30;;;;;;;4.77;4.10;;;;;;;11.12;100.00;96638.47;5023574;28;20198;-83
2022/05/06 06:47:21;;;;;;;5.10;3.97;;;;;;;11.15;100.00;96651.50;5012420;28;20218;-83
2022/05/06 06:49:58;;;;;;;6.13;5.27;;;;;;;11.25;100.00;96651.78;5009124;28;20210;-84
2022/05/06 06:52:44;;;;;;;6.57;4.97;;;;;;;11.32;100.00;96652.53;5022182;28;20218;-84
2022/05/06 06:55:11;;;;;;;5.93;4.43;;;;;;;11.36;100.00;96648.34;5021061;28;20207;-83
2022/05/06 06:57:38;;;;;;;6.43;5.07;;;;;;;11.37;100.00;96647.28;5004957;28;20200;-83
2022/05/06 07:00:10;;;;;;;5.57;4.57;;;;;;;11.46;100.00;96652.38;5010844;28;20207;-82
2022/05/06 07:02:37;;;;;;;5.50;4.60;;;;;;;11.43;100.00;96642.84;5001477;28;20234;-82
2022/05/06 07:05:05;;;;;;;4.43;4.03;;;;;;;11.51;100.00;96638.97;5020026;28;20221;-81
2022/05/06 07:13:01;;;;;;;4.10;3.70;;;;;;;11.53;100.00;96645.00;5005194;28;20222;-83
2022/05/06 07:15:31;;;;;;;4.57;3.67;;;;;;;11.57;100.00;96646.19;5008874;28;20230;-83
2022/05/06 07:18:07;;;;;;;3.07;2.77;;;;;;;11.48;100.00;96634.88;5004710;28;20218;-82
2022/05/06 07:20:35;;;;;;;3.23;2.93;;;;;;;11.52;100.00;96643.34;5022251;28;20321;-86
2022/05/06 07:23:03;;;;;;;3.07;2.77;;;;;;;11.54;100.00;96646.66;5004883;28;20417;-86
2022/05/06 07:25:31;;;;;;;12.17;6.70;;;;;;;11.61;100.00;96645.50;5007242;28;20207;-82
2022/05/06 07:27:58;;;;;;;2.40;2.20;;;;;;;11.57;100.00;96638.88;5004721;28;20219;-87
2022/05/06 07:30:25;;;;;;;2.93;2.50;;;;;;;11.58;100.00;96645.13;5023720;28;20207;-81
2022/05/06 07:32:53;;;;;;;4.30;2.73;;;;;;;11.74;100.00;96650.75;5008488;28;20218;-83
2022/05/06 07:35:21;;;;;;;11.00;7.00;;;;;;;11.79;100.00;96646.53;5021913;28;20362;-84
2022/05/06 07:37:49;;;;;;;2.93;2.70;;;;;;;11.88;100.00;96645.97;5006677;28;20327;-85
2022/05/06 07:40:18;;;;;;;6.90;4.77;;;;;;;11.98;100.00;96643.53;4998344;28;20294;-81
2022/05/06 07:42:47;;;;;;;3.30;2.67;;;;;;;12.05;100.00;96649.66;5004871;28;20286;-81
2022/05/06 07:45:15;;;;;;;3.47;3.17;;;;;;;12.08;100.00;96651.91;5010134;28;20242;-81
2022/05/06 07:47:43;;;;;;;3.07;2.77;;;;;;;12.24;100.00;96641.47;4997533;28;20229;-82
2022/05/06 07:50:12;;;;;;;2.67;2.47;;;;;;;12.19;100.00;96649.44;5015787;28;20203;-86
2022/05/06 07:52:40;;;;;;;2.60;2.40;;;;;;;12.11;100.00;96646.03;5002338;28;20207;-84
2022/05/06 07:55:10;;;;;;;3.00;2.70;;;;;;;12.09;100.00;96640.00;5015155;28;20217;-85
2022/05/06 07:57:37;;;;;;;2.50;2.27;;;;;;;12.09;100.00;96642.72;5004354;28;20207;-86
2022/05/06 08:00:07;;;;;;;5.33;3.10;;;;;;;12.17;100.00;96646.13;5015494;28;20262;-84
2022/05/06 08:05:27;;;;;;;2.93;2.50;;;;;;;12.29;100.00;96644.28;5016287;28;20199;-83
2022/05/06 08:07:56;;;;;;;3.13;2.60;;;;;;;12.27;100.00;96644.50;4997735;28;20220;-83
2022/05/06 08:10:23;;;;;;;6.90;3.37;;;;;;;12.33;100.00;96643.59;5003306;28;20211;-84
2022/05/06 08:12:51;;;;;;;6.40;2.90;;;;;;;12.48;100.00;96645.84;5005515;28;20203;-80
2022/05/06 08:15:18;;;;;;;4.43;3.20;;;;;;;12.46;100.00;96637.13;4999604;28;20218;-85
2022/05/06 08:17:46;;;;;;;14.47;9.23;;;;;;;12.56;100.00;96648.19;5010383;28;20273;-85
2022/05/06 08:20:13;;;;;;;11.67;6.70;;;;;;;12.69;100.00;96653.38;4995017;28;20274;-83
2022/05/06 08:22:42;;;;;;;10.37;7.00;;;;;;;12.73;100.00;96656.44;5014374;28;20227;-85
2022/05/06 08:25:10;;;;;;;34.17;20.97;;;;;;;12.79;100.00;96653.59;4993752;28;20206;-89
2022/05/06 08:27:38;;;;;;;7.30;4.80;;;;;;;12.86;100.00;96659.72;4999766;28;20202;-83
2022/05/06 08:30:07;;;;;;;5.10;3.80;;;;;;;12.94;100.00;96658.53;4998856;28;20209;-83
2022/05/06 08:32:37;;;;;;;13.43;8.57;;;;;;;12.98;100.00;96656.19;4999206;28;20206;-83
2022/05/06 08:35:05;;;;;;;5.53;4.63;;;;;;;13.04;100.00;96666.06;4994750;28;20226;-82
2022/05/06 08:37:43;;;;;;;43.00;19.07;;;;;;;13.07;100.00;96663.72;4993825;28;20249;-86
2022/05/06 08:40:17;;;;;;;4.40;3.27;;;;;;;12.99;100.00;96668.69;5012349;28;20268;-84
2022/05/06 08:42:44;;;;;;;12.23;8.10;;;;;;;12.85;100.00;96668.09;5006055;28;20233;-85
2022/05/06 08:50:53;;;;;;;4.83;3.90;;;;;;;12.83;100.00;96671.06;5000997;28;20246;-84
2022/05/06 08:53:22;;;;;;;12.37;6.50;;;;;;;13.00;100.00;96679.28;5018159;28;20199;-84
2022/05/06 08:55:51;;;;;;;6.90;5.23;;;;;;;13.03;100.00;96676.09;4997436;28;20277;-85
2022/05/06 08:58:20;;;;;;;11.20;6.30;;;;;;;13.08;100.00;96675.38;5004954;28;20225;-83
2022/05/06 09:00:47;;;;;;;10.93;6.00;;;;;;;13.08;100.00;96673.50;4996438;28;20217;-86
2022/05/06 09:03:15;;;;;;;6.63;4.13;;;;;;;13.04;100.00;96675.03;5005566;28;20264;-85
2022/05/06 09:05:50;;;;;;;3.67;3.10;;;;;;;12.90;100.00;96676.34;4996557;28;20294;-84
2022/05/06 09:08:17;;;;;;;40.27;20.00;;;;;;;13.11;100.00;96677.59;4999945;28;20217;-84
2022/05/06 09:11:04;;;;;;;57.53;25.83;;;;;;;13.16;100.00;96666.91;5000241;28;20203;-83
2022/05/06 09:13:31;;;;;;;18.87;11.03;;;;;;;13.22;100.00;96674.91;5011355;28;20210;-83
2022/05/06 09:19:11;;;;;;;50.17;25.30;;;;;;;13.38;100.00;96681.47;4995563;28;20217;-82
2022/05/06 09:21:38;;;;;;;9.57;6.87;;;;;;;13.41;100.00;96669.34;5015093;28;20269;-82
2022/05/06 09:24:19;;;;;;;9.43;6.67;;;;;;;13.50;100.00;96682.28;5004470;28;20306;-82
2022/05/06 09:27:02;;;;;;;3.47;3.17;;;;;;;13.45;100.00;96676.75;5014998;28;20207;-83
2022/05/06 09:29:35;;;;;;;3.83;3.40;;;;;;;13.52;100.00;96680.16;5021440;28;20278;-84
2022/05/06 09:32:23;;;;;;;5.27;4.30;;;;;;;13.51;100.00;96686.66;5003414;28;20217;-83
2022/05/06 09:34:52;;;;;;;3.00;2.63;;;;;;;13.48;100.00;96673.56;5020696;28;20302;-83
2022/05/06 09:37:36;;;;;;;3.37;2.63;;;;;;;13.68;100.00;96683.19;5011390;28;20235;-82
2022/05/06 09:40:06;;;;;;;3.00;2.80;;;;;;;13.66;100.00;96679.88;5011703;28;20241;-82
2022/05/06 09:42:35;;;;;;;3.10;2.80;;;;;;;13.72;100.00;96682.44;5009989;28;20223;-82
2022/05/06 09:45:02;;;;;;;2.47;2.27;;;;;;;13.75;100.00;96679.25;5002276;28;20215;-83
2022/05/06 09:47:29;;;;;;;3.57;2.70;;;;;;;13.76;100.00;96671.94;5001689;28;20214;-82
2022/05/06 09:49:56;;;;;;;3.17;2.07;;;;;;;13.95;100.00;96678.81;5021142;28;20219;-82
2022/05/06 09:52:23;;;;;;;2.13;1.97;;;;;;;13.97;100.00;96682.91;5005390;28;20200;-82
2022/05/06 09:54:51;;;;;;;2.37;2.17;;;;;;;14.04;100.00;96682.75;5000634;28;20219;-83
2022/05/06 09:57:19;;;;;;;1.97;1.80;;;;;;;14.02;100.00;96674.06;5004689;28;20203;-82
2022/05/06 09:59:50;;;;;;;1.90;1.70;;;;;;;14.02;100.00;96674.88;5010351;28;20207;-82
2022/05/06 10:02:18;;;;;;;2.77;1.77;;;;;;;14.17;100.00;96684.34;5007659;28;20233;-83
2022/05/06 10:04:47;;;;;;;2.53;1.40;;;;;;;14.17;100.00;96687.91;4995564;28;20209;-82
2022/05/06 10:07:16;;;;;;;2.17;1.80;;;;;;;14.21;100.00;96685.50;5016158;28;20207;-81
2022/05/06 10:09:54;;;;;;;2.57;1.53;;;;;;;14.16;100.00;96683.53;5011774;28;20207;-81
2022/05/06 10:12:23;;;;;;;2.70;1.70;;;;;;;14.19;100.00;96687.66;5000151;28;20266;-82
2022/05/06 10:14:53;;;;;;;2.27;1.63;;;;;;;14.14;100.00;96693.81;5003258;28;20213;-82
2022/05/06 10:17:48;;;;;;;2.10;1.90;;;;;;;14.12;100.00;96687.78;5004389;28;20249;-81
2022/05/06 10:21:00;;;;;;;5.27;2.57;;;;;;;14.14;100.00;96685.66;5008045;28;20241;-82
2022/05/06 10:23:49;;;;;;;3.23;2.43;;;;;;;14.20;100.00;96687.41;5010398;28;20233;-80
2022/05/06 10:26:46;;;;;;;2.60;2.17;;;;;;;14.22;100.00;96682.53;5015466;28;20209;-81
2022/05/06 10:32:54;;;;;;;2.60;2.37;;;;;;;14.32;100.00;96674.56;5003135;28;20194;-81
2022/05/06 10:35:40;;;;;;;3.00;2.70;;;;;;;14.39;100.00;96672.56;5004058;28;20217;-82
2022/05/06 10:38:22;;;;;;;5.70;3.30;;;;;;;14.55;100.00;96672.78;5000602;28;20254;-82
2022/05/06 10:40:54;;;;;;;3.73;2.90;;;;;;;14.64;100.00;96668.59;4993896;28;20203;-82
2022/05/06 10:43:50;;;;;;;2.93;2.63;;;;;;;14.65;100.00;96672.97;5010245;28;20761;-82
2022/05/06 10:46:34;;;;;;;3.20;2.57;;;;;;;14.68;100.00;96667.88;5014123;28;20199;-82
2022/05/06 10:49:38;;;;;;;3.37;2.80;;;;;;;14.68;100.00;96667.88;5001017;28;20308;-80
2022/05/06 10:52:43;;;;;;;2.90;2.60;;;;;;;14.63;100.00;96659.63;4987204;28;20211;-81
2022/05/06 10:55:13;;;;;;;5.17;3.43;;;;;;;14.56;100.00;96660.84;5000651;28;20211;-81
2022/05/06 10:57:52;;;;;;;4.53;3.20;;;;;;;14.44;100.00;96660.13;5011309;28;20207;-81
2022/05/06 11:00:20;;;;;;;7.73;5.33;;;;;;;14.46;100.00;96663.44;5001331;28;20214;-81
2022/05/06 11:02:49;;;;;;;4.63;3.70;;;;;;;14.55;100.00;96656.50;5004468;28;20210;-82
2022/05/06 11:05:20;;;;;;;4.83;3.67;;;;;;;14.48;100.00;96655.84;5024740;28;20226;-82
2022/05/06 11:07:50;;;;;;;5.07;3.83;;;;;;;14.49;100.00;96662.91;5018313;28;20268;-81
2022/05/06 11:10:19;;;;;;;8.37;5.03;;;;;;;14.48;100.00;96655.84;5020307;28;20307;-81
2022/05/06 11:12:47;;;;;;;6.07;3.67;;;;;;;14.49;100.00;96657.50;5010291;28;20190;-81
2022/05/06 11:15:16;;;;;;;5.20;4.30;;;;;;;14.55;100.00;96651.88;5004674;28;20265;-82
2022/05/06 11:17:44;;;;;;;10.30;5.60;;;;;;;14.54;100.00;96649.44;4996832;28;20195;-81
2022/05/06 11:20:23;;;;;;;11.07;7.27;;;;;;;14.53;100.00;96662.19;5000646;28;20239;-81
2022/05/06 11:22:56;;;;;;;8.93;5.10;;;;;;;14.51;100.00;96667.03;4993697;28;20227;-80
2022/05/06 11:25:25;;;;;;;19.13;10.10;;;;;;;14.52;100.00;96654.28;5005032;28;20208;-81
2022/05/06 11:27:54;;;;;;;11.10;6.67;;;;;;;14.57;100.00;96651.63;5017707;28;20241;-81
2022/05/06 11:30:23;;;;;;;11.10;8.00;;;;;;;14.69;100.00;96657.81;4997775;28;20215;-81
2022/05/06 11:32:52;;;;;;;10.67;6.20;;;;;;;14.75;100.00;96663.06;5024187;28;20212;-82
2022/05/06 11:35:22;;;;;;;3.83;3.00;;;;;;;14.68;100.00;96665.16;5010697;28;20219;-82
2022/05/06 11:37:49;;;;;;;6.70;4.10;;;;;;;14.71;100.00;96658.41;5002796;28;20216;-82
2022/05/06 11:40:35;;;;;;;5.20;3.43;;;;;;;14.68;100.00;96659.72;5002439;28;20440;-83
2022/05/06 11:43:05;;;;;;;7.43;5.03;;;;;;;14.76;100.00;96653.03;5005518;28;20227;-83
2022/05/06 11:48:20;;;;;;;6.47;4.63;;;;;;;14.84;100.00;96658.03;5014389;28;20226;-81
2022/05/06 11:50:52;;;;;;;6.60;4.83;;;;;;;14.82;100.00;96662.91;5019115;28;20260;-82
2022/05/06 11:53:19;;;;;;;11.87;7.30;;;;;;;14.83;100.00;96656.41;5017215;28;20210;-81
2022/05/06 11:55:48;;;;;;;11.63;6.50;;;;;;;14.79;100.00;96654.44;5004845;28;20294;-82
2022/05/06 11:58:18;;;;;;;2.87;2.33;;;;;;;14.66;100.00;96647.44;4993102;28;20231;-81
2022/05/06 12:00:46;;;;;;;3.53;2.30;;;;;;;14.75;100.00;96656.81;5002065;28;20286;-84
2022/05/06 12:03:15;;;;;;;2.37;2.17;;;;;;;14.63;100.00;96653.38;5017993;28;20230;-81
2022/05/06 12:05:42;;;;;;;2.00;1.80;;;;;;;14.62;100.00;96644.41;5019360;28;20211;-81
2022/05/06 12:08:10;;;;;;;2.70;2.50;;;;;;;14.73;100.00;96648.91;5009217;28;20229;-82
2022/05/06 12:10:38;;;;;;;2.83;2.30;;;;;;;14.87;100.00;96654.00;4995307;28;20204;-81
2022/05/06 12:13:08;;;;;;;2.83;2.10;;;;;;;14.89;100.00;96663.53;5007508;28;20207;-84
2022/05/06 12:15:38;;;;;;;2.73;2.27;;;;;;;14.96;100.00;96653.34;5005432;28;20227;-82
2022/05/06 12:18:06;;;;;;;2.10;1.90;;;;;;;15.02;100.00;96648.78;5010972;28;20202;-82